createdAt,value
2023-03-06T00:00:41.421Z,3.70
2023-03-06T00:03:10.763Z,4.00
2023-03-06T00:05:40.220Z,3.80
2023-03-06T00:08:09.627Z,3.40
2023-03-06T00:10:39.044Z,3.17
2023-03-06T00:13:09.607Z,3.05
2023-03-06T00:15:38.931Z,3.60
2023-03-06T00:18:08.634Z,4.22
2023-03-06T00:20:38.557Z,3.80
2023-03-06T00:23:07.819Z,3.35
2023-03-06T00:25:38.936Z,3.45
2023-03-06T00:28:08.697Z,3.83
2023-03-06T00:30:38.353Z,4.10
2023-03-06T00:33:07.621Z,3.42
2023-03-06T00:35:36.893Z,3.22
2023-03-06T00:38:07.100Z,4.07
2023-03-06T00:40:36.552Z,3.33
2023-03-06T00:43:05.820Z,3.17
2023-03-06T00:45:35.144Z,3.28
2023-03-06T00:48:04.466Z,4.18
2023-03-06T00:50:35.226Z,4.10
2023-03-06T00:53:04.504Z,3.67
2023-03-06T00:55:33.827Z,3.38
2023-03-06T00:58:03.174Z,3.92
2023-03-06T01:00:32.487Z,3.35
2023-03-06T01:03:01.759Z,3.22
2023-03-06T01:05:31.025Z,3.13
2023-03-06T01:08:01.852Z,3.75
2023-03-06T01:10:31.647Z,3.88
2023-03-06T01:13:01.160Z,3.42
2023-03-06T01:15:30.457Z,3.83
2023-03-06T01:18:00.545Z,3.88
2023-03-06T01:20:29.880Z,3.72
2023-03-06T01:22:59.372Z,3.90
2023-03-06T01:25:28.867Z,5.53
2023-03-06T01:27:58.156Z,6.68
2023-03-06T01:30:27.394Z,5.40
2023-03-06T01:32:56.971Z,5.90
2023-03-06T01:35:26.321Z,6.30
2023-03-06T01:37:55.639Z,6.13
2023-03-06T01:40:24.984Z,7.10
2023-03-06T01:42:54.269Z,6.72
2023-03-06T01:45:23.461Z,6.93
2023-03-06T01:47:52.766Z,5.95
2023-03-06T01:50:22.079Z,5.38
2023-03-06T01:52:53.598Z,5.95
2023-03-06T01:55:35.530Z,5.55
2023-03-06T01:58:07.709Z,5.40
2023-03-06T02:00:37.250Z,4.88
2023-03-06T02:03:10.690Z,5.97
2023-03-06T02:05:42.146Z,5.22
2023-03-06T02:08:12.467Z,4.97
2023-03-06T02:10:46.909Z,4.72
2023-03-06T02:13:16.224Z,4.93
2023-03-06T02:15:45.488Z,3.95
2023-03-06T02:18:15.614Z,3.80
2023-03-06T02:21:00.105Z,4.35
2023-03-06T02:23:39.246Z,4.60
2023-03-06T02:26:09.463Z,4.30
2023-03-06T02:28:39.973Z,4.28
2023-03-06T02:31:10.204Z,4.47
2023-03-06T02:33:39.777Z,4.38
2023-03-06T02:36:09.954Z,5.47
2023-03-06T02:38:40.773Z,4.78
2023-03-06T02:41:11.146Z,4.82
2023-03-06T02:43:41.712Z,4.20
2023-03-06T02:46:11.176Z,4.47
2023-03-06T02:48:40.534Z,4.57
2023-03-06T02:51:09.828Z,4.38
2023-03-06T02:53:39.077Z,4.28
2023-03-06T02:56:08.540Z,5.13
2023-03-06T02:58:38.284Z,5.07
2023-03-06T03:01:07.970Z,5.45
2023-03-06T03:03:37.838Z,6.22
2023-03-06T03:06:08.261Z,5.57
2023-03-06T03:08:39.135Z,6.47
2023-03-06T03:11:09.268Z,5.82
2023-03-06T03:13:45.175Z,5.72
2023-03-06T03:16:19.970Z,6.00
2023-03-06T03:18:51.133Z,6.32
2023-03-06T03:21:22.995Z,6.47
2023-03-06T03:23:52.331Z,6.70
2023-03-06T03:26:23.033Z,6.78
2023-03-06T03:29:06.987Z,6.22
2023-03-06T03:31:36.348Z,5.90
2023-03-06T03:34:06.446Z,6.45
2023-03-06T03:36:39.633Z,5.82
2023-03-06T03:39:10.923Z,7.07
2023-03-06T03:41:40.550Z,5.88
2023-03-06T03:44:11.348Z,6.45
2023-03-06T03:46:41.010Z,5.85
2023-03-06T03:49:15.204Z,6.03
2023-03-06T03:51:46.335Z,6.32
2023-03-06T03:54:16.220Z,6.72
2023-03-06T03:56:48.880Z,5.82
2023-03-06T03:59:24.394Z,6.05
2023-03-06T04:02:07.244Z,6.35
2023-03-06T04:04:42.480Z,6.47
2023-03-06T04:07:13.956Z,7.03
2023-03-06T04:09:43.970Z,7.18
2023-03-06T04:12:13.905Z,6.00
2023-03-06T04:14:44.382Z,7.22
2023-03-06T04:17:14.086Z,6.45
2023-03-06T04:19:43.507Z,6.95
2023-03-06T04:22:13.971Z,6.45
2023-03-06T04:24:43.352Z,7.50
2023-03-06T04:27:12.771Z,6.30
2023-03-06T04:29:42.216Z,7.30
2023-03-06T04:32:11.706Z,6.53
2023-03-06T04:34:42.195Z,5.95
2023-03-06T04:37:15.687Z,6.05
2023-03-06T04:39:45.046Z,5.75
2023-03-06T04:42:14.354Z,6.53
2023-03-06T04:44:43.898Z,6.80
2023-03-06T04:47:13.897Z,7.03
2023-03-06T04:49:43.175Z,6.55
2023-03-06T04:52:12.465Z,7.38
2023-03-06T04:54:42.890Z,7.88
2023-03-06T04:57:14.196Z,6.75
2023-03-06T04:59:43.515Z,6.53
2023-03-06T05:02:12.820Z,7.03
2023-03-06T05:04:42.111Z,7.13
2023-03-06T05:07:11.368Z,6.45
2023-03-06T05:09:40.705Z,6.38
2023-03-06T05:12:10.106Z,5.68
2023-03-06T05:14:39.376Z,6.97
2023-03-06T05:17:08.664Z,6.80
2023-03-06T05:19:38.002Z,6.07
2023-03-06T05:22:07.820Z,6.32
2023-03-06T05:24:37.078Z,6.78
2023-03-06T05:27:07.120Z,6.20
2023-03-06T05:29:36.443Z,6.20
2023-03-06T05:32:05.822Z,5.43
2023-03-06T05:34:35.246Z,6.50
2023-03-06T05:37:04.574Z,6.95
2023-03-06T05:39:33.808Z,6.53
2023-03-06T05:42:03.118Z,6.63
2023-03-06T05:44:38.846Z,6.97
2023-03-06T05:47:08.204Z,7.07
2023-03-06T05:49:38.259Z,7.32
2023-03-06T05:52:07.790Z,6.90
2023-03-06T05:54:37.771Z,6.93
2023-03-06T05:57:07.663Z,5.95
2023-03-06T05:59:36.958Z,7.60
2023-03-06T06:02:06.883Z,6.60
2023-03-06T06:04:36.353Z,7.20
2023-03-06T06:07:06.048Z,7.03
2023-03-06T06:09:35.302Z,7.47
2023-03-06T06:12:05.657Z,6.55
2023-03-06T06:14:38.230Z,7.40
2023-03-06T06:17:07.632Z,7.95
2023-03-06T06:19:36.898Z,7.88
2023-03-06T06:22:08.662Z,7.20
2023-03-06T06:24:38.093Z,7.65
2023-03-06T06:27:07.883Z,7.80
2023-03-06T06:29:37.325Z,6.88
2023-03-06T06:32:06.660Z,7.85
2023-03-06T06:34:35.985Z,6.80
2023-03-06T06:37:05.438Z,7.40
2023-03-06T06:39:34.738Z,7.45
2023-03-06T06:42:28.171Z,8.25
2023-03-06T06:44:53.458Z,7.28
2023-03-06T06:47:24.839Z,8.38
2023-03-06T06:49:55.236Z,8.07
2023-03-06T06:52:24.863Z,7.13
2023-03-06T06:54:54.503Z,8.48
2023-03-06T06:57:23.961Z,8.90
2023-03-06T06:59:54.188Z,8.07
2023-03-06T07:02:23.820Z,7.35
2023-03-06T07:05:03.727Z,7.90
2023-03-06T07:07:36.635Z,6.93
2023-03-06T07:10:11.062Z,8.70
2023-03-06T07:12:40.370Z,7.75
2023-03-06T07:15:10.462Z,8.32
2023-03-06T07:17:39.719Z,10.68
2023-03-06T07:20:10.629Z,10.35
2023-03-06T07:22:50.290Z,9.57
2023-03-06T07:25:20.383Z,8.93
2023-03-06T07:27:53.619Z,8.23
2023-03-06T07:30:24.067Z,9.35
2023-03-06T07:32:57.248Z,10.43
2023-03-06T07:35:26.819Z,9.38
2023-03-06T07:37:56.089Z,9.85
2023-03-06T07:40:25.470Z,8.98
2023-03-06T07:43:09.415Z,8.15
2023-03-06T07:45:50.206Z,9.05
2023-03-06T07:48:19.456Z,9.77
2023-03-06T07:50:48.748Z,9.00
2023-03-06T07:53:18.034Z,9.68
2023-03-06T07:55:47.341Z,9.38
2023-03-06T07:58:16.686Z,9.07
2023-03-06T08:00:45.926Z,8.88
2023-03-06T08:03:15.360Z,10.20
2023-03-06T08:05:44.891Z,10.13
2023-03-06T08:08:14.617Z,8.60
2023-03-06T08:10:43.932Z,10.32
2023-03-06T08:13:13.191Z,10.13
2023-03-06T08:15:42.455Z,9.68
2023-03-06T08:18:11.982Z,9.52
2023-03-06T08:20:41.267Z,10.40
2023-03-06T08:23:11.999Z,9.50
2023-03-06T08:25:41.328Z,10.07
2023-03-06T08:28:10.632Z,9.75
2023-03-06T08:30:39.957Z,9.20
2023-03-06T08:33:09.213Z,9.43
2023-03-06T08:35:38.616Z,9.52
2023-03-06T08:38:07.916Z,9.07
2023-03-06T08:40:37.205Z,9.18
2023-03-06T08:43:06.652Z,10.52
2023-03-06T08:45:35.944Z,9.50
2023-03-06T08:48:05.219Z,8.98
2023-03-06T08:50:34.615Z,8.55
2023-03-06T08:53:04.175Z,8.93
2023-03-06T08:55:33.462Z,8.75
2023-03-06T08:58:04.124Z,9.88
2023-03-06T09:00:34.255Z,8.73
2023-03-06T09:03:03.710Z,9.15
2023-03-06T09:05:33.038Z,8.20
2023-03-06T09:08:03.428Z,8.25
2023-03-06T09:10:32.771Z,6.65
2023-03-06T09:13:02.407Z,6.05
2023-03-06T09:15:31.897Z,7.18
2023-03-06T09:18:01.247Z,6.80
2023-03-06T09:20:30.638Z,7.07
2023-03-06T09:22:59.979Z,7.22
2023-03-06T09:25:29.266Z,6.93
2023-03-06T09:28:11.031Z,6.20
2023-03-06T09:30:42.699Z,5.75
2023-03-06T09:33:12.112Z,5.28
2023-03-06T09:36:10.924Z,4.75
2023-03-06T09:38:40.264Z,5.15
2023-03-06T09:41:24.929Z,5.72
2023-03-06T09:43:55.988Z,4.95
2023-03-06T09:46:44.297Z,4.30
2023-03-06T09:49:25.817Z,3.65
2023-03-06T09:52:04.521Z,4.55
2023-03-06T09:54:40.445Z,3.88
2023-03-06T09:57:16.579Z,4.70
2023-03-06T09:59:47.975Z,3.45
2023-03-06T10:02:19.104Z,3.53
2023-03-06T10:05:01.794Z,3.58
2023-03-06T10:07:36.275Z,2.92
2023-03-06T10:10:08.303Z,3.17
2023-03-06T10:12:48.458Z,3.42
2023-03-06T10:15:19.545Z,2.92
2023-03-06T10:17:48.974Z,3.72
2023-03-06T10:20:18.991Z,4.20
2023-03-06T10:23:01.288Z,3.75
2023-03-06T10:25:51.236Z,3.35
2023-03-06T10:28:22.075Z,3.03
2023-03-06T10:31:10.585Z,2.55
2023-03-06T10:33:52.227Z,2.60
2023-03-06T10:36:22.768Z,2.30
2023-03-06T10:38:52.129Z,1.77
2023-03-06T10:41:21.394Z,1.60
2023-03-06T10:44:03.140Z,2.22
2023-03-06T10:46:34.395Z,2.30
2023-03-06T10:49:05.047Z,2.17
2023-03-06T10:51:35.638Z,2.00
2023-03-06T10:54:06.483Z,1.67
2023-03-06T10:56:37.229Z,1.70
2023-03-06T10:59:11.380Z,1.58
2023-03-06T11:01:41.033Z,2.13
2023-03-06T11:04:28.990Z,1.80
2023-03-06T11:07:07.470Z,1.92
2023-03-06T11:09:36.950Z,1.80
2023-03-06T11:12:25.161Z,1.70
2023-03-06T11:15:09.875Z,1.45
2023-03-06T11:17:40.673Z,1.65
2023-03-06T11:20:52.327Z,1.73
2023-03-06T11:23:24.353Z,1.77
2023-03-06T11:26:01.229Z,2.05
2023-03-06T11:28:35.424Z,2.22
2023-03-06T11:31:07.084Z,2.25
2023-03-06T11:33:46.464Z,2.28
2023-03-06T11:36:17.903Z,1.80
2023-03-06T11:38:47.240Z,2.03
2023-03-06T11:41:36.741Z,1.95
2023-03-06T11:44:16.434Z,1.70
2023-03-06T11:47:06.002Z,2.47
2023-03-06T11:49:39.800Z,2.20
2023-03-06T11:52:22.414Z,2.17
2023-03-06T11:57:23.308Z,2.20
2023-03-06T12:00:05.239Z,3.13
2023-03-06T12:02:52.360Z,2.65
2023-03-06T12:05:22.727Z,2.40
2023-03-06T12:08:12.631Z,2.40
2023-03-06T12:10:51.596Z,3.33
2023-03-06T12:16:18.686Z,2.85
2023-03-06T12:18:54.060Z,2.22
2023-03-06T12:21:31.102Z,2.85
2023-03-06T12:24:12.567Z,2.60
2023-03-06T12:26:44.831Z,2.50
2023-03-06T12:29:29.949Z,2.28
2023-03-06T12:32:06.385Z,2.13
2023-03-06T12:34:48.015Z,2.20
2023-03-06T12:37:23.321Z,2.17
2023-03-06T12:40:11.066Z,2.05
2023-03-06T12:42:59.322Z,2.30
2023-03-06T12:45:44.267Z,2.40
2023-03-06T12:48:33.885Z,1.90
2023-03-06T12:51:03.661Z,2.30
2023-03-06T12:53:34.803Z,2.88
2023-03-06T12:56:04.847Z,3.13
2023-03-06T12:58:34.146Z,2.65
2023-03-06T13:01:04.950Z,2.20
2023-03-06T13:03:57.735Z,2.92
2023-03-06T13:08:59.302Z,2.55
2023-03-06T13:13:57.789Z,2.40
2023-03-06T13:16:32.908Z,2.97
2023-03-06T13:19:14.607Z,2.47
2023-03-06T13:21:43.878Z,2.63
2023-03-06T13:24:22.397Z,2.65
2023-03-06T13:26:53.459Z,3.17
2023-03-06T13:29:41.021Z,3.35
2023-03-06T13:32:13.453Z,3.28
2023-03-06T13:37:23.228Z,3.15
2023-03-06T13:39:58.686Z,3.65
2023-03-06T13:42:32.361Z,5.00
2023-03-06T13:45:18.150Z,4.60
2023-03-06T13:48:14.125Z,4.65
2023-03-06T13:50:42.965Z,4.55
2023-03-06T13:53:22.575Z,5.22
2023-03-06T13:56:06.464Z,5.38
2023-03-06T13:58:47.660Z,5.15
2023-03-06T14:01:25.528Z,6.10
2023-03-06T14:04:04.011Z,5.55
2023-03-06T14:06:41.804Z,5.47
2023-03-06T14:09:18.558Z,5.47
2023-03-06T14:11:56.393Z,5.55
2023-03-06T14:14:31.618Z,6.05
2023-03-06T14:17:02.184Z,6.03
2023-03-06T14:19:33.823Z,6.65
2023-03-06T14:22:04.225Z,6.03
2023-03-06T14:24:39.613Z,6.80
2023-03-06T14:27:09.239Z,5.53
2023-03-06T14:29:38.620Z,5.50
2023-03-06T14:32:12.393Z,7.10
2023-03-06T14:34:43.606Z,6.13
2023-03-06T14:37:22.109Z,6.80
2023-03-06T14:39:51.960Z,5.68
2023-03-06T14:42:24.192Z,5.95
2023-03-06T14:45:05.640Z,5.13
2023-03-06T14:47:38.928Z,5.13
2023-03-06T14:50:21.733Z,5.55
2023-03-06T14:52:52.148Z,4.95
2023-03-06T14:55:22.796Z,4.95
2023-03-06T14:58:00.926Z,4.22
2023-03-06T15:00:36.308Z,4.93
2023-03-06T15:03:08.099Z,3.83
2023-03-06T15:05:37.909Z,4.53
2023-03-06T15:08:09.804Z,4.63
2023-03-06T15:10:39.487Z,4.68
2023-03-06T15:13:12.893Z,6.28
2023-03-06T15:15:42.401Z,5.85
2023-03-06T15:18:33.877Z,5.85
2023-03-06T15:21:20.951Z,6.25
2023-03-06T15:23:51.628Z,5.03
2023-03-06T15:26:20.933Z,6.53
2023-03-06T15:29:06.981Z,6.75
2023-03-06T15:31:39.330Z,6.72
2023-03-06T15:34:09.263Z,6.57
2023-03-06T15:36:39.440Z,6.38
2023-03-06T15:39:27.574Z,7.25
2023-03-06T15:42:20.757Z,6.30
2023-03-06T15:44:54.292Z,6.85
2023-03-06T15:47:24.365Z,6.43
2023-03-06T15:49:54.567Z,7.82
2023-03-06T15:52:24.630Z,8.55
2023-03-06T15:54:53.898Z,8.93
2023-03-06T15:57:25.153Z,9.25
2023-03-06T15:59:56.137Z,9.90
2023-03-06T16:02:26.107Z,10.77
2023-03-06T16:04:55.380Z,12.10
2023-03-06T16:07:25.272Z,10.63
2023-03-06T16:09:55.587Z,12.68
2023-03-06T16:12:25.350Z,11.18
2023-03-06T16:14:54.734Z,12.48
2023-03-06T16:17:24.102Z,12.18
2023-03-06T16:19:53.437Z,12.30
2023-03-06T16:22:22.814Z,13.15
2023-03-06T16:24:52.596Z,12.93
2023-03-06T16:27:25.706Z,13.88
2023-03-06T16:29:55.070Z,14.40
2023-03-06T16:32:27.104Z,12.98
2023-03-06T16:34:57.914Z,15.13
2023-03-06T16:37:27.338Z,13.30
2023-03-06T16:39:56.680Z,13.77
2023-03-06T16:42:25.980Z,14.20
2023-03-06T16:44:55.417Z,13.70
2023-03-06T16:47:24.729Z,14.25
2023-03-06T16:50:01.932Z,13.57
2023-03-06T16:52:34.102Z,14.15
2023-03-06T16:55:03.602Z,13.65
2023-03-06T16:57:35.751Z,14.38
2023-03-06T17:00:06.634Z,14.63
2023-03-06T17:02:36.116Z,12.63
2023-03-06T17:05:05.753Z,15.88
2023-03-06T17:07:35.776Z,13.73
2023-03-06T17:10:05.533Z,13.90
2023-03-06T17:12:34.839Z,13.05
2023-03-06T17:15:04.231Z,13.60
2023-03-06T17:17:33.707Z,13.80
2023-03-06T17:20:03.177Z,12.88
2023-03-06T17:22:34.978Z,11.75
2023-03-06T17:25:06.821Z,13.70
2023-03-06T17:27:37.104Z,14.45
2023-03-06T17:30:07.199Z,13.05
2023-03-06T17:32:36.605Z,12.38
2023-03-06T17:35:05.996Z,12.48
2023-03-06T17:37:35.348Z,12.25
2023-03-06T17:40:04.778Z,13.35
2023-03-06T17:42:34.078Z,12.23
2023-03-06T17:45:05.127Z,12.25
2023-03-06T17:47:34.797Z,12.75
2023-03-06T17:50:04.126Z,13.40
2023-03-06T17:52:33.847Z,13.77
2023-03-06T17:55:03.238Z,11.95
2023-03-06T17:57:32.573Z,13.27
2023-03-06T18:00:01.913Z,12.80
2023-03-06T18:02:41.642Z,12.63
2023-03-06T18:05:11.428Z,13.07
2023-03-06T18:07:40.868Z,14.52
2023-03-06T18:10:10.364Z,15.02
2023-03-06T18:12:39.760Z,12.38
2023-03-06T18:15:09.363Z,13.60
2023-03-06T18:17:38.655Z,14.70
2023-03-06T18:20:09.175Z,14.23
2023-03-06T18:22:38.479Z,14.40
2023-03-06T18:25:07.903Z,13.43
2023-03-06T18:27:37.820Z,12.75
2023-03-06T18:30:07.532Z,13.10
2023-03-06T18:32:37.745Z,14.88
2023-03-06T18:35:09.260Z,15.30
2023-03-06T18:37:38.571Z,13.32
2023-03-06T18:40:08.209Z,14.43
2023-03-06T18:42:37.483Z,14.02
2023-03-06T18:45:06.870Z,14.80
2023-03-06T18:47:36.452Z,14.15
2023-03-06T18:50:06.088Z,13.80
2023-03-06T18:52:36.655Z,15.63
2023-03-06T18:55:06.544Z,13.02
2023-03-06T18:57:35.779Z,14.02
2023-03-06T19:00:05.068Z,14.13
2023-03-06T19:02:34.490Z,13.80
2023-03-06T19:05:03.832Z,12.52
2023-03-06T19:07:33.122Z,13.30
2023-03-06T19:10:02.508Z,15.02
2023-03-06T19:12:31.771Z,14.50
2023-03-06T19:15:01.072Z,14.05
2023-03-06T19:17:31.619Z,13.85
2023-03-06T19:20:00.878Z,13.05
2023-03-06T19:22:30.121Z,14.40
2023-03-06T19:24:59.367Z,12.68
2023-03-06T19:27:28.671Z,13.38
2023-03-06T19:29:57.991Z,13.30
2023-03-06T19:32:27.640Z,13.32
2023-03-06T19:34:59.336Z,12.20
2023-03-06T19:37:28.827Z,12.63
2023-03-06T19:40:01.413Z,12.85
2023-03-06T19:42:30.904Z,11.40
2023-03-06T19:45:00.277Z,11.70
2023-03-06T19:47:29.560Z,11.32
2023-03-06T19:50:01.089Z,11.90
2023-03-06T19:52:30.428Z,11.10
2023-03-06T19:54:59.689Z,10.43
2023-03-06T19:57:29.005Z,11.80
2023-03-06T19:59:58.849Z,10.35
2023-03-06T20:02:28.184Z,11.52
2023-03-06T20:04:57.817Z,10.55
2023-03-06T20:07:27.292Z,10.38
2023-03-06T20:10:00.445Z,11.10
2023-03-06T20:12:29.860Z,9.40
2023-03-06T20:14:59.197Z,10.75
2023-03-06T20:17:28.696Z,10.38
2023-03-06T20:19:58.175Z,11.85
2023-03-06T20:22:27.492Z,10.88
2023-03-06T20:24:56.903Z,10.63
2023-03-06T20:27:26.233Z,10.82
2023-03-06T20:29:55.576Z,10.43
2023-03-06T20:32:24.914Z,11.02
2023-03-06T20:34:54.186Z,10.23
2023-03-06T20:37:23.477Z,11.77
2023-03-06T20:39:52.754Z,11.55
2023-03-06T20:42:22.044Z,10.77
2023-03-06T20:44:51.298Z,11.10
2023-03-06T20:47:20.537Z,10.82
2023-03-06T20:49:49.751Z,12.57
2023-03-06T20:52:19.243Z,10.68
2023-03-06T20:54:48.509Z,10.45
2023-03-06T20:57:17.759Z,9.82
2023-03-06T20:59:47.693Z,12.73
2023-03-06T21:02:17.968Z,11.70
2023-03-06T21:04:47.357Z,10.90
2023-03-06T21:07:17.062Z,11.20
2023-03-06T21:09:47.696Z,12.35
2023-03-06T21:12:16.978Z,12.13
2023-03-06T21:14:46.221Z,11.73
2023-03-06T21:17:15.517Z,11.43
2023-03-06T21:19:46.033Z,12.07
2023-03-06T21:22:15.806Z,11.40
2023-03-06T21:24:45.151Z,12.68
2023-03-06T21:27:14.488Z,10.38
2023-03-06T21:29:43.796Z,11.20
2023-03-06T21:32:13.073Z,11.70
2023-03-06T21:34:42.361Z,10.93
2023-03-06T21:37:11.633Z,11.00
2023-03-06T21:39:41.362Z,12.23
2023-03-06T21:42:10.652Z,12.80
2023-03-06T21:44:39.950Z,12.30
2023-03-06T21:47:09.421Z,11.90
2023-03-06T21:49:38.694Z,11.98
2023-03-06T21:52:07.991Z,10.57
2023-03-06T21:54:37.281Z,10.93
2023-03-06T21:57:06.594Z,11.35
2023-03-06T21:59:35.869Z,10.82
2023-03-06T22:02:05.156Z,12.00
2023-03-06T22:04:34.508Z,11.65
2023-03-06T22:07:03.869Z,11.52
2023-03-06T22:09:33.128Z,11.68
2023-03-06T22:12:02.424Z,10.20
2023-03-06T22:14:31.667Z,10.82
2023-03-06T22:17:01.535Z,10.35
2023-03-06T22:19:30.872Z,11.93
2023-03-06T22:22:00.102Z,11.13
2023-03-06T22:24:29.326Z,11.38
2023-03-06T22:26:58.638Z,10.85
2023-03-06T22:29:28.043Z,9.48
2023-03-06T22:31:57.399Z,10.35
2023-03-06T22:34:26.689Z,9.85
2023-03-06T22:36:56.007Z,10.60
2023-03-06T22:39:25.398Z,9.27
2023-03-06T22:41:57.338Z,11.40
2023-03-06T22:44:26.657Z,9.43
2023-03-06T22:46:56.067Z,8.57
2023-03-06T22:49:25.363Z,8.90
2023-03-06T22:51:54.614Z,10.18
2023-03-06T22:54:23.864Z,9.55
2023-03-06T22:56:53.209Z,11.70
2023-03-06T22:59:22.508Z,9.30
2023-03-06T23:01:51.769Z,9.02
2023-03-06T23:04:21.023Z,9.43
2023-03-06T23:06:50.329Z,9.15
2023-03-06T23:09:21.426Z,9.77
2023-03-06T23:12:11.573Z,8.18
2023-03-06T23:14:59.554Z,7.63
2023-03-06T23:17:47.574Z,7.82
2023-03-06T23:20:35.283Z,8.48
2023-03-06T23:23:22.868Z,8.25
2023-03-06T23:25:52.088Z,7.97
2023-03-06T23:28:21.604Z,7.90
2023-03-06T23:30:51.073Z,7.57
2023-03-06T23:33:20.449Z,7.22
2023-03-06T23:35:49.774Z,7.50
2023-03-06T23:38:19.163Z,6.65
2023-03-06T23:40:49.602Z,6.50
2023-03-06T23:43:18.972Z,7.05
2023-03-06T23:45:55.290Z,7.20
2023-03-06T23:48:24.983Z,6.95
2023-03-06T23:50:54.280Z,6.00
2023-03-06T23:53:23.949Z,7.40
2023-03-06T23:55:53.902Z,5.88
2023-03-06T23:58:23.358Z,6.70
